Time;durP1;ratioP1;P1;durP2;ratioP2;P2;SDS_P1;SDS_P2;PMS_P1;PMS_P2;Temp;Humidity;BMP_temperature;BMP_pressure;BME280_temperature;BME280_humidity;BME280_pressure;Samples;Min_cycle;Max_cycle;Signal;HPM_P1;HPM_P2
2021/05/22 00:01:20;;;;;;;4.10;2.17;;;;;;;;;;5136445;27;20197;-76
2021/05/22 00:03:47;;;;;;;3.35;2.22;;;;;;;;;;5136043;27;20214;-76
2021/05/22 00:06:14;;;;;;;4.53;2.85;;;;;;;;;;5136156;27;20194;-76
2021/05/22 00:08:40;;;;;;;3.05;2.42;;;;;;;;;;5136118;27;20284;-77
2021/05/22 00:11:07;;;;;;;3.00;2.30;;;;;;;;;;5135621;27;20209;-76
2021/05/22 00:13:34;;;;;;;7.18;2.28;;;;;;;;;;5135719;27;20285;-76
2021/05/22 00:16:09;;;;;;;3.50;2.50;;;;;;;;;;5135845;27;20555;-76
2021/05/22 00:18:37;;;;;;;4.63;2.70;;;;;;;;;;5136433;27;20583;-76
2021/05/22 00:21:04;;;;;;;11.32;3.50;;;;;;;;;;5135809;27;20240;-76
2021/05/22 00:23:31;;;;;;;5.80;2.20;;;;;;;;;;5135457;27;20266;-77
2021/05/22 00:25:57;;;;;;;3.78;2.35;;;;;;;;;;5135736;27;20226;-76
2021/05/22 00:28:24;;;;;;;3.38;2.42;;;;;;;;;;5135380;27;20190;-76
2021/05/22 00:30:51;;;;;;;5.65;2.00;;;;;;;;;;5135460;27;20194;-77
2021/05/22 00:33:17;;;;;;;3.58;2.35;;;;;;;;;;5135664;27;20285;-77
2021/05/22 00:35:45;;;;;;;4.45;2.15;;;;;;;;;;5135241;27;20204;-77
2021/05/22 00:38:12;;;;;;;4.38;1.90;;;;;;;;;;5135144;27;20224;-79
2021/05/22 00:40:38;;;;;;;5.70;2.20;;;;;;;;;;5135273;27;20331;-77
2021/05/22 00:43:05;;;;;;;6.80;2.60;;;;;;;;;;5135056;27;20310;-78
2021/05/22 00:45:33;;;;;;;6.88;2.05;;;;;;;;;;5135229;27;20230;-77
2021/05/22 00:48:00;;;;;;;3.72;2.40;;;;;;;;;;5135288;27;20202;-78
2021/05/22 00:50:27;;;;;;;3.70;2.25;;;;;;;;;;5135188;27;20227;-77
2021/05/22 00:52:55;;;;;;;3.28;2.05;;;;;;;;;;5134235;27;20250;-77
2021/05/22 00:55:22;;;;;;;2.88;1.83;;;;;;;;;;5135040;27;20285;-78
2021/05/22 00:57:49;;;;;;;4.93;2.33;;;;;;;;;;5135430;27;20623;-77
2021/05/22 01:00:16;;;;;;;4.63;2.85;;;;;;;;;;5135032;27;20213;-78
2021/05/22 01:02:44;;;;;;;2.03;1.85;;;;;;;;;;5135208;27;20222;-78
2021/05/22 01:05:20;;;;;;;3.00;1.88;;;;;;;;;;5134925;27;20293;-77
2021/05/22 01:07:47;;;;;;;2.53;1.73;;;;;;;;;;5135173;27;20543;-79
2021/05/22 01:10:15;;;;;;;2.80;1.90;;;;;;;;;;5134942;27;20260;-79
2021/05/22 01:12:43;;;;;;;6.85;2.38;;;;;;;;;;5134955;27;20197;-80
2021/05/22 01:15:11;;;;;;;3.85;3.55;;;;;;;;;;5134614;27;20203;-80
2021/05/22 01:17:39;;;;;;;4.72;2.72;;;;;;;;;;5134937;27;20194;-80
2021/05/22 01:20:10;;;;;;;3.00;2.10;;;;;;;;;;5134778;27;20190;-80
2021/05/22 01:22:39;;;;;;;2.42;2.22;;;;;;;;;;5135106;27;20187;-79
2021/05/22 01:25:08;;;;;;;8.73;2.05;;;;;;;;;;5134745;27;20238;-79
2021/05/22 01:27:36;;;;;;;4.07;2.30;;;;;;;;;;5134691;27;20556;-80
2021/05/22 01:30:04;;;;;;;1.83;1.52;;;;;;;;;;5134664;27;20594;-81
2021/05/22 01:32:30;;;;;;;3.22;1.90;;;;;;;;;;5134612;27;20240;-80
2021/05/22 01:34:57;;;;;;;2.72;1.77;;;;;;;;;;5134925;27;20198;-78
2021/05/22 01:37:24;;;;;;;7.13;3.92;;;;;;;;;;5134367;27;20193;-77
2021/05/22 01:39:50;;;;;;;6.55;3.25;;;;;;;;;;5134510;27;20206;-77
2021/05/22 01:42:17;;;;;;;5.97;2.08;;;;;;;;;;5134000;27;20226;-77
2021/05/22 01:44:46;;;;;;;3.67;2.05;;;;;;;;;;5134441;28;20313;-76
2021/05/22 01:47:14;;;;;;;2.30;2.10;;;;;;;;;;5134059;28;20192;-77
2021/05/22 01:49:40;;;;;;;3.97;1.70;;;;;;;;;;5134347;28;20301;-76
2021/05/22 01:52:07;;;;;;;6.78;2.25;;;;;;;;;;5134471;28;20203;-76
2021/05/22 01:54:34;;;;;;;6.05;2.10;;;;;;;;;;5133968;28;20677;-75
2021/05/22 01:57:01;;;;;;;3.75;2.13;;;;;;;;;;5134315;28;20192;-75
2021/05/22 01:59:28;;;;;;;4.55;2.42;;;;;;;;;;5134595;28;20199;-76
2021/05/22 02:01:57;;;;;;;7.38;2.10;;;;;;;;;;5133979;28;20202;-76
2021/05/22 02:04:27;;;;;;;6.05;2.15;;;;;;;;;;5135604;27;20213;-76
2021/05/22 02:06:55;;;;;;;2.47;1.90;;;;;;;;;;5139329;27;20236;-79
2021/05/22 02:09:22;;;;;;;5.43;1.70;;;;;;;;;;5138821;27;20599;-78
2021/05/22 02:11:50;;;;;;;5.68;2.53;;;;;;;;;;5138790;27;20246;-77
2021/05/22 02:14:18;;;;;;;1.95;1.75;;;;;;;;;;5138430;27;20253;-76
2021/05/22 02:16:48;;;;;;;5.60;2.55;;;;;;;;;;5137904;27;20206;-76
2021/05/22 02:19:16;;;;;;;6.60;1.67;;;;;;;;;;5138276;27;20280;-76
2021/05/22 02:21:45;;;;;;;2.42;2.10;;;;;;;;;;5137911;27;20202;-78
2021/05/22 02:24:12;;;;;;;5.10;2.00;;;;;;;;;;5138061;27;20218;-79
2021/05/22 02:26:39;;;;;;;5.47;2.05;;;;;;;;;;5138577;27;20200;-80
2021/05/22 02:29:06;;;;;;;3.25;2.03;;;;;;;;;;5138318;27;20560;-79
2021/05/22 02:31:38;;;;;;;6.45;2.40;;;;;;;;;;5138075;27;20195;-79
2021/05/22 02:34:05;;;;;;;3.67;1.92;;;;;;;;;;5138501;27;20259;-79
2021/05/22 02:36:32;;;;;;;5.60;2.30;;;;;;;;;;5138077;27;20189;-79
2021/05/22 02:39:01;;;;;;;4.20;2.00;;;;;;;;;;5137917;27;20206;-79
2021/05/22 02:41:28;;;;;;;1.95;1.75;;;;;;;;;;5138395;27;20194;-79
2021/05/22 02:43:57;;;;;;;1.80;1.70;;;;;;;;;;5137550;27;20234;-79
2021/05/22 02:46:24;;;;;;;3.90;2.13;;;;;;;;;;5137350;27;20197;-79
2021/05/22 02:48:52;;;;;;;4.03;2.05;;;;;;;;;;5137421;27;20204;-79
2021/05/22 02:51:21;;;;;;;9.10;2.10;;;;;;;;;;5138403;27;20197;-79
2021/05/22 02:53:49;;;;;;;4.47;2.08;;;;;;;;;;5137582;27;20196;-79
2021/05/22 02:56:16;;;;;;;4.00;2.22;;;;;;;;;;5137234;27;20194;-78
2021/05/22 02:58:44;;;;;;;4.28;2.13;;;;;;;;;;5137188;27;20189;-79
2021/05/22 03:01:11;;;;;;;2.50;2.13;;;;;;;;;;5137305;27;20198;-78
2021/05/22 03:03:38;;;;;;;3.50;1.95;;;;;;;;;;5137282;27;20234;-79
2021/05/22 03:06:06;;;;;;;2.60;1.92;;;;;;;;;;5137466;27;20205;-80
2021/05/22 03:08:42;;;;;;;4.20;1.90;;;;;;;;;;5137476;27;20204;-78
2021/05/22 03:11:10;;;;;;;3.25;2.25;;;;;;;;;;5136865;27;20210;-79
2021/05/22 03:13:37;;;;;;;5.53;2.10;;;;;;;;;;5137538;27;20594;-78
2021/05/22 03:16:04;;;;;;;3.88;2.30;;;;;;;;;;5136268;27;20197;-78
2021/05/22 03:18:31;;;;;;;3.63;2.20;;;;;;;;;;5137921;27;20281;-81
2021/05/22 03:20:58;;;;;;;4.25;2.10;;;;;;;;;;5136754;27;20216;-80
2021/05/22 03:23:24;;;;;;;4.68;2.22;;;;;;;;;;5137132;27;20213;-81
2021/05/22 03:25:51;;;;;;;4.40;2.30;;;;;;;;;;5137720;27;20287;-80
2021/05/22 03:28:19;;;;;;;3.67;1.83;;;;;;;;;;5137340;27;20193;-78
2021/05/22 03:30:46;;;;;;;10.50;3.10;;;;;;;;;;5136928;27;20198;-79
2021/05/22 03:33:12;;;;;;;3.17;1.75;;;;;;;;;;5136977;27;20198;-77
2021/05/22 03:35:39;;;;;;;2.63;1.90;;;;;;;;;;5137163;27;20199;-79
2021/05/22 03:38:06;;;;;;;5.93;1.98;;;;;;;;;;5136826;27;20192;-81
2021/05/22 03:40:32;;;;;;;7.40;1.80;;;;;;;;;;5136575;27;20658;-79
2021/05/22 03:42:59;;;;;;;4.22;1.77;;;;;;;;;;5136392;27;20712;-79
2021/05/22 03:45:27;;;;;;;5.82;1.80;;;;;;;;;;5136943;27;20188;-81
2021/05/22 03:47:54;;;;;;;3.25;1.90;;;;;;;;;;5137611;27;20641;-81
2021/05/22 03:50:20;;;;;;;4.10;1.95;;;;;;;;;;5137072;27;20195;-80
2021/05/22 03:52:47;;;;;;;3.60;1.88;;;;;;;;;;5137224;27;20190;-79
2021/05/22 03:55:14;;;;;;;3.92;2.42;;;;;;;;;;5136834;27;20192;-80
2021/05/22 03:57:41;;;;;;;4.70;2.10;;;;;;;;;;5136990;27;20651;-80
2021/05/22 04:00:09;;;;;;;4.25;2.05;;;;;;;;;;5136874;27;20243;-77
2021/05/22 04:02:36;;;;;;;2.95;1.83;;;;;;;;;;5136520;27;20189;-74
2021/05/22 04:05:04;;;;;;;2.78;1.92;;;;;;;;;;5136707;27;20227;-80
2021/05/22 04:07:31;;;;;;;6.70;2.30;;;;;;;;;;5136763;27;20195;-80
2021/05/22 04:09:57;;;;;;;6.78;1.65;;;;;;;;;;5137510;27;20199;-80
2021/05/22 04:12:24;;;;;;;4.18;1.70;;;;;;;;;;5136717;27;20280;-75
2021/05/22 04:14:51;;;;;;;9.70;2.00;;;;;;;;;;5136278;27;20204;-77
2021/05/22 04:17:17;;;;;;;2.40;2.20;;;;;;;;;;5135911;27;20190;-75
2021/05/22 04:19:45;;;;;;;4.88;1.90;;;;;;;;;;5136039;27;20195;-77
2021/05/22 04:22:12;;;;;;;5.13;1.77;;;;;;;;;;5135859;27;20723;-76
2021/05/22 04:24:38;;;;;;;3.95;3.05;;;;;;;;;;5135815;27;20557;-75
2021/05/22 04:27:05;;;;;;;4.30;1.90;;;;;;;;;;5128549;27;20199;-75
2021/05/22 04:29:32;;;;;;;6.65;2.10;;;;;;;;;;5118135;27;20195;-76
2021/05/22 04:31:59;;;;;;;1.95;1.60;;;;;;;;;;5115085;28;20553;-76
2021/05/22 04:34:25;;;;;;;2.80;1.58;;;;;;;;;;5114782;28;20198;-77
2021/05/22 04:36:53;;;;;;;3.70;1.85;;;;;;;;;;5114820;28;20195;-76
2021/05/22 04:39:19;;;;;;;2.20;1.60;;;;;;;;;;5115218;28;20199;-76
2021/05/22 04:41:46;;;;;;;4.25;1.67;;;;;;;;;;5114755;28;20199;-76
2021/05/22 04:44:13;;;;;;;3.08;2.10;;;;;;;;;;5115013;28;20208;-76
2021/05/22 04:46:40;;;;;;;2.55;1.55;;;;;;;;;;5114877;28;20199;-77
2021/05/22 04:49:07;;;;;;;2.65;1.70;;;;;;;;;;5115416;28;20282;-75
2021/05/22 04:51:34;;;;;;;7.60;5.25;;;;;;;;;;5115650;28;20196;-77
2021/05/22 04:54:03;;;;;;;5.90;1.70;;;;;;;;;;5114975;28;20255;-77
2021/05/22 04:56:30;;;;;;;1.85;1.30;;;;;;;;;;5114754;28;20194;-77
2021/05/22 04:58:56;;;;;;;4.78;1.92;;;;;;;;;;5114737;28;20290;-78
2021/05/22 05:01:23;;;;;;;2.00;1.50;;;;;;;;;;5114840;28;20197;-77
2021/05/22 05:03:50;;;;;;;5.75;1.85;;;;;;;;;;5114825;28;20219;-76
2021/05/22 05:06:17;;;;;;;7.22;2.00;;;;;;;;;;5115148;28;20190;-79
2021/05/22 05:08:44;;;;;;;6.00;1.92;;;;;;;;;;5114622;28;20553;-79
2021/05/22 05:11:11;;;;;;;5.68;2.22;;;;;;;;;;5115053;28;20271;-78
2021/05/22 05:13:38;;;;;;;4.13;1.80;;;;;;;;;;5115595;28;20284;-81
2021/05/22 05:16:05;;;;;;;5.72;2.00;;;;;;;;;;5116278;28;20192;-77
2021/05/22 05:18:32;;;;;;;3.67;1.85;;;;;;;;;;5115359;28;20332;-78
2021/05/22 05:20:59;;;;;;;4.10;1.80;;;;;;;;;;5114945;28;20203;-77
2021/05/22 05:23:25;;;;;;;4.40;2.10;;;;;;;;;;5114296;28;20209;-77
2021/05/22 05:25:52;;;;;;;4.13;2.13;;;;;;;;;;5114764;28;20285;-79
2021/05/22 05:28:20;;;;;;;5.43;2.28;;;;;;;;;;5114358;28;20331;-77
2021/05/22 05:30:47;;;;;;;2.97;1.83;;;;;;;;;;5115676;28;20196;-76
2021/05/22 05:33:14;;;;;;;4.75;2.13;;;;;;;;;;5116001;28;20199;-76
2021/05/22 05:35:41;;;;;;;5.43;2.03;;;;;;;;;;5115888;28;20217;-76
2021/05/22 05:38:07;;;;;;;2.45;1.80;;;;;;;;;;5115463;28;20198;-78
2021/05/22 05:40:34;;;;;;;9.80;2.35;;;;;;;;;;5115369;28;20192;-77
2021/05/22 05:43:03;;;;;;;5.30;1.90;;;;;;;;;;5114442;28;20228;-77
2021/05/22 05:45:30;;;;;;;3.83;1.98;;;;;;;;;;5114959;28;20449;-77
2021/05/22 05:47:57;;;;;;;5.78;2.33;;;;;;;;;;5115662;28;20198;-76
2021/05/22 05:50:24;;;;;;;4.80;1.97;;;;;;;;;;5114782;28;20199;-78
2021/05/22 05:52:51;;;;;;;4.63;2.07;;;;;;;;;;5114793;28;20536;-79
2021/05/22 05:55:18;;;;;;;2.03;1.60;;;;;;;;;;5114517;28;20440;-78
2021/05/22 05:57:44;;;;;;;4.50;1.80;;;;;;;;;;5114251;28;20227;-81
2021/05/22 06:00:12;;;;;;;5.68;1.73;;;;;;;;;;5115460;28;20200;-78
2021/05/22 06:02:39;;;;;;;3.85;2.15;;;;;;;;;;5115103;28;20279;-79
2021/05/22 06:05:07;;;;;;;4.20;2.10;;;;;;;;;;5114809;28;20216;-74
2021/05/22 06:07:33;;;;;;;5.35;2.92;;;;;;;;;;5115010;28;20487;-77
2021/05/22 06:10:00;;;;;;;4.78;1.77;;;;;;;;;;5114853;28;20244;-79
2021/05/22 06:12:27;;;;;;;7.23;2.37;;;;;;;;;;5114339;28;20236;-84
2021/05/22 06:14:56;;;;;;;7.03;2.37;;;;;;;;;;5114934;28;20457;-79
2021/05/22 06:17:23;;;;;;;5.63;2.63;;;;;;;;;;5114362;28;20445;-78
2021/05/22 06:19:50;;;;;;;6.37;2.33;;;;;;;;;;5114413;28;20486;-78
2021/05/22 06:22:17;;;;;;;4.05;2.20;;;;;;;;;;5113925;28;20946;-78
2021/05/22 06:24:44;;;;;;;5.20;2.03;;;;;;;;;;5113864;28;20212;-79
2021/05/22 06:27:10;;;;;;;11.18;2.28;;;;;;;;;;5114043;28;20935;-78
2021/05/22 06:29:37;;;;;;;3.15;1.90;;;;;;;;;;5114079;28;20197;-77
2021/05/22 06:32:04;;;;;;;11.38;2.78;;;;;;;;;;5114401;28;20198;-78
2021/05/22 06:34:31;;;;;;;6.20;3.00;;;;;;;;;;5114390;28;20200;-77
2021/05/22 06:36:58;;;;;;;5.45;2.30;;;;;;;;;;5114554;28;20622;-78
2021/05/22 06:39:25;;;;;;;8.32;2.30;;;;;;;;;;5114599;28;20195;-78
2021/05/22 06:41:51;;;;;;;3.72;2.10;;;;;;;;;;5113832;28;20309;-79
2021/05/22 06:44:23;;;;;;;6.38;2.40;;;;;;;;;;5115038;28;20223;-78
2021/05/22 06:46:50;;;;;;;3.92;2.00;;;;;;;;;;5114341;28;20297;-78
2021/05/22 06:49:18;;;;;;;8.93;2.08;;;;;;;;;;5114892;28;20194;-77
2021/05/22 06:51:45;;;;;;;5.20;2.50;;;;;;;;;;5118259;28;20202;-79
2021/05/22 06:54:13;;;;;;;3.38;2.03;;;;;;;;;;5117701;28;20211;-78
2021/05/22 06:56:39;;;;;;;8.98;2.92;;;;;;;;;;5117904;28;20236;-79
2021/05/22 06:59:06;;;;;;;3.45;2.05;;;;;;;;;;5117984;28;20294;-79
2021/05/22 07:01:33;;;;;;;5.03;2.90;;;;;;;;;;5119179;28;20283;-80
2021/05/22 07:03:59;;;;;;;6.80;2.60;;;;;;;;;;5118731;28;20227;-79
2021/05/22 07:06:26;;;;;;;3.60;2.40;;;;;;;;;;5118917;28;20206;-78
2021/05/22 07:08:56;;;;;;;8.07;2.40;;;;;;;;;;5119543;28;20620;-78
2021/05/22 07:11:24;;;;;;;2.42;2.13;;;;;;;;;;5117956;28;20236;-80
2021/05/22 07:13:51;;;;;;;11.20;2.45;;;;;;;;;;5119125;28;20622;-77
2021/05/22 07:16:17;;;;;;;8.20;2.28;;;;;;;;;;5118409;28;20206;-78
2021/05/22 07:18:44;;;;;;;5.35;2.40;;;;;;;;;;5119580;28;20244;-79
2021/05/22 07:21:11;;;;;;;8.73;2.53;;;;;;;;;;5119377;28;20282;-79
2021/05/22 07:23:38;;;;;;;2.88;2.20;;;;;;;;;;5119351;28;20305;-79
2021/05/22 07:26:04;;;;;;;11.73;3.63;;;;;;;;;;5118050;28;20194;-79
2021/05/22 07:28:33;;;;;;;7.15;3.05;;;;;;;;;;5118863;28;20286;-81
2021/05/22 07:31:00;;;;;;;10.48;2.80;;;;;;;;;;5118150;28;20220;-82
2021/05/22 07:33:27;;;;;;;3.63;2.60;;;;;;;;;;5119389;28;20205;-80
2021/05/22 07:35:54;;;;;;;9.10;2.55;;;;;;;;;;5117854;28;20206;-78
2021/05/22 07:38:21;;;;;;;12.32;2.70;;;;;;;;;;5116861;28;20194;-79
2021/05/22 07:40:48;;;;;;;3.78;2.20;;;;;;;;;;5117050;28;20196;-80
2021/05/22 07:43:20;;;;;;;7.80;2.55;;;;;;;;;;5116993;28;20317;-78
2021/05/22 07:45:48;;;;;;;4.78;2.60;;;;;;;;;;5117346;28;20265;-75
2021/05/22 07:48:15;;;;;;;6.07;2.50;;;;;;;;;;5117234;28;20202;-74
2021/05/22 07:50:43;;;;;;;2.83;2.20;;;;;;;;;;5116677;28;20199;-79
2021/05/22 07:53:09;;;;;;;3.95;2.47;;;;;;;;;;5116712;28;20202;-79
2021/05/22 07:55:36;;;;;;;9.48;2.60;;;;;;;;;;5118195;28;20228;-79
2021/05/22 07:58:03;;;;;;;3.25;2.05;;;;;;;;;;5118243;28;20196;-81
2021/05/22 08:00:29;;;;;;;3.72;2.47;;;;;;;;;;5119941;28;20230;-82
2021/05/22 08:02:57;;;;;;;6.72;2.40;;;;;;;;;;5117995;28;20243;-78
2021/05/22 08:05:24;;;;;;;7.78;2.35;;;;;;;;;;5118773;28;20291;-76
2021/05/22 08:07:50;;;;;;;4.65;2.17;;;;;;;;;;5117891;28;20306;-77
2021/05/22 08:10:18;;;;;;;5.25;2.28;;;;;;;;;;5119624;27;20279;-77
2021/05/22 08:12:45;;;;;;;3.10;2.00;;;;;;;;;;5125096;27;20227;-77
2021/05/22 08:15:12;;;;;;;3.78;2.22;;;;;;;;;;5116503;28;20285;-77
2021/05/22 08:17:38;;;;;;;9.90;3.05;;;;;;;;;;5116111;28;20325;-76
2021/05/22 08:20:07;;;;;;;6.50;2.58;;;;;;;;;;5116500;28;20579;-76
2021/05/22 08:22:34;;;;;;;2.90;2.55;;;;;;;;;;5115785;28;20232;-78
2021/05/22 08:25:01;;;;;;;7.38;3.08;;;;;;;;;;5116649;28;20214;-76
2021/05/22 08:27:28;;;;;;;5.85;2.20;;;;;;;;;;5116529;28;20191;-79
2021/05/22 08:29:54;;;;;;;4.50;2.47;;;;;;;;;;5116971;28;20206;-78
2021/05/22 08:32:21;;;;;;;8.00;2.42;;;;;;;;;;5115953;28;20196;-77
2021/05/22 08:34:48;;;;;;;3.40;2.35;;;;;;;;;;5115956;28;20255;-78
2021/05/22 08:37:19;;;;;;;3.95;2.70;;;;;;;;;;5116029;28;20194;-78
2021/05/22 08:39:46;;;;;;;3.88;2.45;;;;;;;;;;5116555;28;20188;-75
2021/05/22 08:42:16;;;;;;;7.95;2.67;;;;;;;;;;5114939;28;20204;-75
2021/05/22 08:44:43;;;;;;;3.10;2.60;;;;;;;;;;5115187;28;20211;-77
2021/05/22 08:47:10;;;;;;;11.57;2.95;;;;;;;;;;5115384;28;20231;-77
2021/05/22 08:49:43;;;;;;;4.72;2.20;;;;;;;;;;5115524;28;20286;-77
2021/05/22 08:52:11;;;;;;;5.00;2.45;;;;;;;;;;5116118;28;20197;-75
2021/05/22 08:54:39;;;;;;;4.28;2.70;;;;;;;;;;5115549;28;20235;-77
2021/05/22 08:57:07;;;;;;;3.97;2.70;;;;;;;;;;5115660;28;20295;-76
2021/05/22 08:59:38;;;;;;;4.65;2.13;;;;;;;;;;5115254;28;20206;-75
2021/05/22 09:02:05;;;;;;;6.65;2.28;;;;;;;;;;5115011;28;20260;-76
2021/05/22 09:04:32;;;;;;;5.82;2.40;;;;;;;;;;5115080;28;20309;-78
2021/05/22 09:07:00;;;;;;;3.65;2.42;;;;;;;;;;5115579;28;20280;-77
2021/05/22 09:09:38;;;;;;;5.95;2.38;;;;;;;;;;5115088;28;20197;-76
2021/05/22 09:12:05;;;;;;;5.97;2.92;;;;;;;;;;5115066;28;20648;-76
2021/05/22 09:14:42;;;;;;;4.22;2.50;;;;;;;;;;5115043;28;20221;-76
2021/05/22 09:17:10;;;;;;;3.90;2.30;;;;;;;;;;5115719;28;20192;-75
2021/05/22 09:19:36;;;;;;;2.42;1.98;;;;;;;;;;5114825;28;20199;-76
2021/05/22 09:22:13;;;;;;;2.15;1.95;;;;;;;;;;5115091;28;20201;-77
2021/05/22 09:27:34;;;;;;;5.65;2.38;;;;;;;;;;5172961;27;20701;-75
2021/05/22 09:30:04;;;;;;;9.48;2.70;;;;;;;;;;5153176;27;20285;-77
2021/05/22 09:32:31;;;;;;;4.68;2.63;;;;;;;;;;5153250;27;20193;-76
2021/05/22 09:34:58;;;;;;;10.65;2.50;;;;;;;;;;5153946;27;20202;-79
2021/05/22 09:37:25;;;;;;;4.07;2.22;;;;;;;;;;5152959;27;20283;-77
2021/05/22 09:39:53;;;;;;;4.97;2.13;;;;;;;;;;5153872;27;20205;-76
2021/05/22 09:42:26;;;;;;;3.85;2.45;;;;;;;;;;5153262;27;20204;-78
2021/05/22 09:44:54;;;;;;;3.10;1.77;;;;;;;;;;5153572;27;20264;-76
2021/05/22 09:47:21;;;;;;;2.10;1.90;;;;;;;;;;5153069;27;20256;-79
2021/05/22 09:49:50;;;;;;;7.07;3.22;;;;;;;;;;5153684;27;20202;-79
2021/05/22 09:52:17;;;;;;;9.02;2.60;;;;;;;;;;5153194;27;20201;-77
2021/05/22 09:54:46;;;;;;;5.15;2.13;;;;;;;;;;5153567;27;20250;-77
2021/05/22 09:57:14;;;;;;;3.92;2.50;;;;;;;;;;5153242;27;20256;-75
2021/05/22 09:59:41;;;;;;;5.18;2.80;;;;;;;;;;5153184;27;20192;-77
2021/05/22 10:02:10;;;;;;;3.83;2.70;;;;;;;;;;5153691;27;20555;-78
2021/05/22 10:04:37;;;;;;;2.50;2.30;;;;;;;;;;5153305;27;20659;-79
2021/05/22 10:07:03;;;;;;;4.55;2.88;;;;;;;;;;5153529;27;20680;-76
2021/05/22 10:09:30;;;;;;;4.32;2.25;;;;;;;;;;5153687;27;20199;-76
2021/05/22 10:12:04;;;;;;;2.85;2.65;;;;;;;;;;5153998;27;20205;-77
2021/05/22 10:14:33;;;;;;;2.47;2.00;;;;;;;;;;5154419;27;20200;-78
2021/05/22 10:17:02;;;;;;;6.13;3.22;;;;;;;;;;5153991;27;20197;-76
2021/05/22 10:19:30;;;;;;;4.95;2.95;;;;;;;;;;5153580;27;20190;-78
2021/05/22 10:21:57;;;;;;;7.07;3.40;;;;;;;;;;5153517;27;20198;-76
2021/05/22 10:24:24;;;;;;;5.22;3.45;;;;;;;;;;5153583;27;20244;-78
2021/05/22 10:26:52;;;;;;;7.15;2.85;;;;;;;;;;5152783;27;20237;-76
2021/05/22 10:29:19;;;;;;;3.35;2.58;;;;;;;;;;5144397;27;20647;-77
2021/05/22 10:31:47;;;;;;;2.85;2.60;;;;;;;;;;5133387;28;20225;-77
2021/05/22 10:34:14;;;;;;;4.72;3.03;;;;;;;;;;5133547;28;20195;-79
2021/05/22 10:36:46;;;;;;;2.90;2.53;;;;;;;;;;5132878;28;20188;-76
2021/05/22 10:39:34;;;;;;;4.70;3.20;;;;;;;;;;5119969;28;20599;-79
2021/05/22 10:42:01;;;;;;;6.47;3.33;;;;;;;;;;5119868;28;20450;-78
2021/05/22 10:44:29;;;;;;;6.65;3.50;;;;;;;;;;5119363;28;20530;-78
2021/05/22 10:47:21;;;;;;;8.93;3.72;;;;;;;;;;5118439;28;20213;-77
2021/05/22 10:49:49;;;;;;;8.30;3.40;;;;;;;;;;5094634;28;20204;-77
2021/05/22 10:52:18;;;;;;;6.40;3.55;;;;;;;;;;5118261;28;20515;-76
2021/05/22 10:54:58;;;;;;;6.60;3.20;;;;;;;;;;5118632;28;20211;-80
2021/05/22 10:57:24;;;;;;;3.92;3.65;;;;;;;;;;5117512;28;20282;-77
2021/05/22 11:00:10;;;;;;;6.13;2.92;;;;;;;;;;5117979;28;20224;-77
2021/05/22 11:02:38;;;;;;;7.38;3.78;;;;;;;;;;5118824;28;20308;-77
2021/05/22 11:05:20;;;;;;;11.05;4.07;;;;;;;;;;5118046;28;20202;-75
2021/05/22 11:07:47;;;;;;;9.75;5.68;;;;;;;;;;5100882;28;20680;-75
2021/05/22 11:10:35;;;;;;;6.32;3.85;;;;;;;;;;5117623;28;20266;-75
2021/05/22 11:13:01;;;;;;;4.45;3.45;;;;;;;;;;5117187;28;20196;-75
2021/05/22 11:15:44;;;;;;;5.93;3.72;;;;;;;;;;5117239;28;20206;-75
2021/05/22 11:18:12;;;;;;;4.63;3.75;;;;;;;;;;5118247;28;20185;-76
2021/05/22 11:20:39;;;;;;;6.05;3.97;;;;;;;;;;5118610;28;20210;-76
2021/05/22 11:23:07;;;;;;;9.63;4.97;;;;;;;;;;5117950;28;20200;-76
2021/05/22 11:25:47;;;;;;;5.72;3.88;;;;;;;;;;5117802;28;20559;-77
2021/05/22 11:28:19;;;;;;;5.55;4.32;;;;;;;;;;5117301;28;20199;-77
2021/05/22 11:30:47;;;;;;;4.45;3.85;;;;;;;;;;5117738;28;20199;-77
2021/05/22 11:33:30;;;;;;;4.95;4.47;;;;;;;;;;5117263;28;20319;-78
2021/05/22 11:35:57;;;;;;;7.93;4.00;;;;;;;;;;5117299;28;20250;-77
2021/05/22 11:38:38;;;;;;;5.35;3.22;;;;;;;;;;5117082;28;20264;-78
2021/05/22 11:41:12;;;;;;;10.60;4.00;;;;;;;;;;5116943;28;20585;-78
2021/05/22 11:43:42;;;;;;;6.95;4.30;;;;;;;;;;5116987;28;20187;-79
2021/05/22 11:46:10;;;;;;;7.97;4.45;;;;;;;;;;5116453;28;20223;-76
2021/05/22 11:48:39;;;;;;;8.25;4.20;;;;;;;;;;5115881;28;20197;-77
2021/05/22 11:51:10;;;;;;;5.03;4.07;;;;;;;;;;5115422;28;20539;-79
2021/05/22 11:53:38;;;;;;;3.87;3.43;;;;;;;;;;5116932;28;20445;-77
2021/05/22 11:56:08;;;;;;;5.87;3.40;;;;;;;;;;5116534;28;20454;-76
2021/05/22 11:58:36;;;;;;;3.97;3.63;;;;;;;;;;5116576;28;20454;-78
2021/05/22 12:01:14;;;;;;;5.00;3.70;;;;;;;;;;5116555;28;20250;-77
2021/05/22 12:03:41;;;;;;;11.07;4.43;;;;;;;;;;5116710;28;20200;-78
2021/05/22 12:06:08;;;;;;;8.00;4.32;;;;;;;;;;5116550;28;20221;-76
2021/05/22 12:08:35;;;;;;;6.43;4.07;;;;;;;;;;5116088;28;20207;-77
2021/05/22 12:11:16;;;;;;;8.40;4.70;;;;;;;;;;5115732;28;20488;-76
2021/05/22 12:13:53;;;;;;;5.25;4.43;;;;;;;;;;5115146;28;20180;-76
2021/05/22 12:16:20;;;;;;;6.93;3.93;;;;;;;;;;5115382;28;20207;-76
2021/05/22 12:18:47;;;;;;;5.78;4.40;;;;;;;;;;5115329;28;20445;-76
2021/05/22 12:21:22;;;;;;;5.05;4.25;;;;;;;;;;5115203;28;20291;-75
2021/05/22 12:23:48;;;;;;;5.03;4.53;;;;;;;;;;5115677;28;20191;-76
2021/05/22 12:26:16;;;;;;;7.20;3.90;;;;;;;;;;5114654;28;20494;-77
2021/05/22 12:28:43;;;;;;;9.70;4.50;;;;;;;;;;5114554;28;20951;-75
2021/05/22 12:31:10;;;;;;;8.38;6.28;;;;;;;;;;5114502;28;20525;-77
2021/05/22 12:33:37;;;;;;;4.97;4.00;;;;;;;;;;5114636;28;20231;-77
2021/05/22 12:36:04;;;;;;;4.43;4.03;;;;;;;;;;5114759;28;20527;-77
2021/05/22 12:38:38;;;;;;;6.88;5.00;;;;;;;;;;5115000;28;20214;-77
2021/05/22 12:41:05;;;;;;;4.93;3.75;;;;;;;;;;5114537;28;20204;-76
2021/05/22 12:43:45;;;;;;;5.03;4.20;;;;;;;;;;5114249;28;20195;-77
2021/05/22 12:46:27;;;;;;;3.90;3.60;;;;;;;;;;5114219;28;20225;-77
2021/05/22 12:48:54;;;;;;;7.10;4.65;;;;;;;;;;5111909;28;20200;-74
2021/05/22 12:51:22;;;;;;;4.97;4.43;;;;;;;;;;5114197;28;20199;-76
2021/05/22 12:53:49;;;;;;;9.20;4.63;;;;;;;;;;5114152;28;20758;-75
2021/05/22 12:56:17;;;;;;;5.45;5.05;;;;;;;;;;5114821;28;20655;-74
2021/05/22 12:58:47;;;;;;;8.25;5.57;;;;;;;;;;5115177;28;20203;-75
2021/05/22 13:01:15;;;;;;;6.78;6.18;;;;;;;;;;5114008;28;20207;-76
2021/05/22 13:03:42;;;;;;;4.85;4.25;;;;;;;;;;5114267;28;20204;-77
2021/05/22 13:06:11;;;;;;;6.40;5.13;;;;;;;;;;5113679;28;20668;-75
2021/05/22 13:08:38;;;;;;;4.83;3.60;;;;;;;;;;5114361;28;20556;-74
2021/05/22 13:11:08;;;;;;;5.03;4.00;;;;;;;;;;5113862;28;20886;-74
2021/05/22 13:13:35;;;;;;;8.17;3.50;;;;;;;;;;5114144;28;20452;-73
2021/05/22 13:16:07;;;;;;;4.00;3.70;;;;;;;;;;5113668;28;20957;-75
2021/05/22 13:18:35;;;;;;;6.43;4.50;;;;;;;;;;5114601;28;20562;-73
2021/05/22 13:21:02;;;;;;;11.13;4.93;;;;;;;;;;5114511;28;20441;-75
2021/05/22 13:23:33;;;;;;;5.37;3.43;;;;;;;;;;5116298;28;20483;-73
2021/05/22 13:26:00;;;;;;;6.80;4.67;;;;;;;;;;5122738;28;20583;-74
2021/05/22 13:28:28;;;;;;;5.85;4.45;;;;;;;;;;5116036;28;20434;-74
2021/05/22 13:31:02;;;;;;;5.33;4.13;;;;;;;;;;5134815;28;20556;-73
2021/05/22 13:33:34;;;;;;;4.65;4.25;;;;;;;;;;5135153;28;20519;-73
2021/05/22 13:36:00;;;;;;;7.18;4.70;;;;;;;;;;5134959;28;20221;-72
2021/05/22 13:38:27;;;;;;;7.35;4.45;;;;;;;;;;5134423;28;20282;-72
2021/05/22 13:40:54;;;;;;;4.57;4.07;;;;;;;;;;5134656;28;20203;-72
2021/05/22 13:43:20;;;;;;;5.68;4.32;;;;;;;;;;5134094;28;20622;-72
2021/05/22 13:45:47;;;;;;;4.97;4.50;;;;;;;;;;5134792;28;20213;-72
2021/05/22 13:48:14;;;;;;;11.68;4.40;;;;;;;;;;5135192;28;20456;-72
2021/05/22 13:50:42;;;;;;;4.47;4.10;;;;;;;;;;5134546;28;20732;-71
2021/05/22 13:53:09;;;;;;;8.60;4.63;;;;;;;;;;5134410;28;20512;-72
2021/05/22 13:55:37;;;;;;;5.85;4.10;;;;;;;;;;5114312;28;20527;-73
2021/05/22 13:58:04;;;;;;;8.17;5.33;;;;;;;;;;5114531;28;20440;-73
2021/05/22 14:00:30;;;;;;;7.03;4.40;;;;;;;;;;5115252;28;20456;-74
2021/05/22 14:02:57;;;;;;;10.60;4.95;;;;;;;;;;5115281;28;20269;-71
2021/05/22 14:05:24;;;;;;;7.10;4.45;;;;;;;;;;5114413;28;20289;-69
2021/05/22 14:07:52;;;;;;;6.13;4.75;;;;;;;;;;5114209;28;20228;-69
2021/05/22 14:10:18;;;;;;;6.03;5.30;;;;;;;;;;5114034;28;20289;-70
2021/05/22 14:12:45;;;;;;;5.90;4.95;;;;;;;;;;5115705;28;20200;-69
2021/05/22 14:15:12;;;;;;;4.80;4.18;;;;;;;;;;5118326;28;20592;-71
2021/05/22 14:17:39;;;;;;;8.05;4.30;;;;;;;;;;5117931;28;20232;-70
2021/05/22 14:20:07;;;;;;;11.15;4.60;;;;;;;;;;5117308;28;20201;-71
2021/05/22 14:22:33;;;;;;;5.25;4.70;;;;;;;;;;5117439;28;20278;-70
2021/05/22 14:25:02;;;;;;;5.63;3.78;;;;;;;;;;5117363;28;20189;-69
2021/05/22 14:27:29;;;;;;;5.47;4.95;;;;;;;;;;5117489;28;20227;-75
2021/05/22 14:29:55;;;;;;;4.88;4.05;;;;;;;;;;5117515;28;20601;-70
2021/05/22 14:32:22;;;;;;;4.97;4.47;;;;;;;;;;5117033;28;20198;-70
2021/05/22 14:34:49;;;;;;;4.93;4.45;;;;;;;;;;5117512;28;20199;-71
2021/05/22 14:37:16;;;;;;;9.10;4.20;;;;;;;;;;5116933;28;20224;-70
2021/05/22 14:39:42;;;;;;;7.70;4.25;;;;;;;;;;5117337;28;20196;-70
2021/05/22 14:42:10;;;;;;;6.07;4.37;;;;;;;;;;5117139;28;20203;-70
2021/05/22 14:44:38;;;;;;;7.55;4.35;;;;;;;;;;5116857;28;20506;-70
2021/05/22 14:47:05;;;;;;;3.38;3.08;;;;;;;;;;5116678;28;20263;-70
2021/05/22 14:49:33;;;;;;;4.40;4.10;;;;;;;;;;5117114;28;20198;-71
2021/05/22 14:51:59;;;;;;;4.68;3.97;;;;;;;;;;5117002;28;20203;-70